sensor_id;sensor_type;location;lat;lon;timestamp;pressure;altitude;pressure_sealevel;temperature;humidity
56400;BME280;42298;53.638;9.876;2024-01-30T00:02:17;100766.69;;;4.97;100.00
56400;BME280;42298;53.638;9.876;2024-01-30T00:04:42;100777.63;;;4.93;100.00
56400;BME280;42298;53.638;9.876;2024-01-30T00:07:07;100764.44;;;4.82;100.00
56400;BME280;42298;53.638;9.876;2024-01-30T00:09:33;100785.06;;;4.88;100.00
56400;BME280;42298;53.638;9.876;2024-01-30T00:11:58;100784.34;;;4.86;100.00
56400;BME280;42298;53.638;9.876;2024-01-30T00:14:23;100788.31;;;4.80;100.00
56400;BME280;42298;53.638;9.876;2024-01-30T00:16:49;100781.38;;;4.79;100.00
56400;BME280;42298;53.638;9.876;2024-01-30T00:19:15;100782.31;;;4.78;100.00
56400;BME280;42298;53.638;9.876;2024-01-30T00:21:40;100781.00;;;4.72;100.00
56400;BME280;42298;53.638;9.876;2024-01-30T00:24:06;100781.84;;;4.73;100.00
56400;BME280;42298;53.638;9.876;2024-01-30T00:26:31;100775.03;;;4.70;100.00
56400;BME280;42298;53.638;9.876;2024-01-30T00:28:56;100772.50;;;4.69;100.00
56400;BME280;42298;53.638;9.876;2024-01-30T00:31:22;100782.94;;;4.70;100.00
56400;BME280;42298;53.638;9.876;2024-01-30T00:33:47;100777.91;;;4.67;100.00
56400;BME280;42298;53.638;9.876;2024-01-30T00:36:13;100776.31;;;4.65;100.00
56400;BME280;42298;53.638;9.876;2024-01-30T00:38:38;100785.69;;;4.57;100.00
56400;BME280;42298;53.638;9.876;2024-01-30T00:41:03;100789.41;;;4.55;100.00
56400;BME280;42298;53.638;9.876;2024-01-30T00:43:29;100782.69;;;4.51;100.00
56400;BME280;42298;53.638;9.876;2024-01-30T00:45:54;100779.81;;;4.43;100.00
56400;BME280;42298;53.638;9.876;2024-01-30T00:48:20;100788.34;;;4.46;100.00
56400;BME280;42298;53.638;9.876;2024-01-30T00:50:45;100788.09;;;4.49;100.00
56400;BME280;42298;53.638;9.876;2024-01-30T00:53:11;100785.44;;;4.49;100.00
56400;BME280;42298;53.638;9.876;2024-01-30T00:55:36;100780.44;;;4.46;100.00
56400;BME280;42298;53.638;9.876;2024-01-30T00:58:01;100781.41;;;4.45;100.00
56400;BME280;42298;53.638;9.876;2024-01-30T01:00:28;100767.25;;;4.35;100.00
56400;BME280;42298;53.638;9.876;2024-01-30T01:02:55;100791.59;;;4.39;100.00
56400;BME280;42298;53.638;9.876;2024-01-30T01:05:20;100793.63;;;4.35;100.00
56400;BME280;42298;53.638;9.876;2024-01-30T01:07:45;100797.81;;;4.38;100.00
56400;BME280;42298;53.638;9.876;2024-01-30T01:10:12;100794.22;;;4.39;100.00
56400;BME280;42298;53.638;9.876;2024-01-30T01:12:39;100792.41;;;4.39;100.00
56400;BME280;42298;53.638;9.876;2024-01-30T01:15:04;100787.97;;;4.40;100.00
56400;BME280;42298;53.638;9.876;2024-01-30T01:17:30;100792.16;;;4.42;100.00
56400;BME280;42298;53.638;9.876;2024-01-30T01:19:55;100790.38;;;4.43;100.00
56400;BME280;42298;53.638;9.876;2024-01-30T01:22:21;100783.06;;;4.35;100.00
56400;BME280;42298;53.638;9.876;2024-01-30T01:24:46;100790.63;;;4.40;100.00
56400;BME280;42298;53.638;9.876;2024-01-30T01:27:11;100786.44;;;4.37;100.00
56400;BME280;42298;53.638;9.876;2024-01-30T01:29:37;100787.72;;;4.43;100.00
56400;BME280;42298;53.638;9.876;2024-01-30T01:32:03;100773.22;;;4.48;100.00
56400;BME280;42298;53.638;9.876;2024-01-30T01:34:28;100763.75;;;4.46;100.00
56400;BME280;42298;53.638;9.876;2024-01-30T01:36:53;100757.78;;;4.44;100.00
56400;BME280;42298;53.638;9.876;2024-01-30T01:39:20;100753.44;;;4.43;100.00
56400;BME280;42298;53.638;9.876;2024-01-30T01:41:45;100746.38;;;4.43;100.00
56400;BME280;42298;53.638;9.876;2024-01-30T01:44:11;100743.75;;;4.43;100.00
56400;BME280;42298;53.638;9.876;2024-01-30T01:46:36;100741.84;;;4.45;100.00
56400;BME280;42298;53.638;9.876;2024-01-30T01:49:03;100733.31;;;4.42;100.00
56400;BME280;42298;53.638;9.876;2024-01-30T01:51:31;100730.69;;;4.42;100.00
56400;BME280;42298;53.638;9.876;2024-01-30T01:54:00;100717.25;;;4.45;100.00
56400;BME280;42298;53.638;9.876;2024-01-30T01:56:27;100695.66;;;4.51;100.00
56400;BME280;42298;53.638;9.876;2024-01-30T01:58:55;100691.09;;;4.53;100.00
56400;BME280;42298;53.638;9.876;2024-01-30T02:01:20;100677.66;;;4.56;100.00
56400;BME280;42298;53.638;9.876;2024-01-30T02:03:46;100665.69;;;4.52;100.00
56400;BME280;42298;53.638;9.876;2024-01-30T02:06:13;100671.44;;;4.57;100.00
56400;BME280;42298;53.638;9.876;2024-01-30T02:08:40;100653.22;;;4.54;100.00
56400;BME280;42298;53.638;9.876;2024-01-30T02:11:05;100643.69;;;4.63;100.00
56400;BME280;42298;53.638;9.876;2024-01-30T02:13:31;100636.75;;;4.62;100.00
56400;BME280;42298;53.638;9.876;2024-01-30T02:15:56;100626.47;;;4.59;100.00
56400;BME280;42298;53.638;9.876;2024-01-30T02:18:22;100627.69;;;4.54;100.00
56400;BME280;42298;53.638;9.876;2024-01-30T02:20:47;100633.19;;;4.51;100.00
56400;BME280;42298;53.638;9.876;2024-01-30T02:23:15;100628.63;;;4.53;100.00
56400;BME280;42298;53.638;9.876;2024-01-30T02:25:42;100616.41;;;4.52;100.00
56400;BME280;42298;53.638;9.876;2024-01-30T02:28:13;100613.78;;;4.52;100.00
56400;BME280;42298;53.638;9.876;2024-01-30T02:30:39;100614.38;;;4.45;100.00
56400;BME280;42298;53.638;9.876;2024-01-30T02:33:05;100619.66;;;4.45;100.00
56400;BME280;42298;53.638;9.876;2024-01-30T02:35:30;100620.63;;;4.44;100.00
56400;BME280;42298;53.638;9.876;2024-01-30T02:37:55;100616.63;;;4.49;100.00
56400;BME280;42298;53.638;9.876;2024-01-30T02:40:21;100617.72;;;4.47;100.00
56400;BME280;42298;53.638;9.876;2024-01-30T02:42:46;100618.00;;;4.44;100.00
56400;BME280;42298;53.638;9.876;2024-01-30T02:45:12;100612.13;;;4.40;100.00
56400;BME280;42298;53.638;9.876;2024-01-30T02:47:38;100614.91;;;4.39;100.00
56400;BME280;42298;53.638;9.876;2024-01-30T02:50:04;100609.75;;;4.37;100.00
56400;BME280;42298;53.638;9.876;2024-01-30T02:52:29;100610.69;;;4.36;100.00
56400;BME280;42298;53.638;9.876;2024-01-30T02:54:55;100614.03;;;4.38;100.00
56400;BME280;42298;53.638;9.876;2024-01-30T02:57:20;100619.69;;;4.33;100.00
56400;BME280;42298;53.638;9.876;2024-01-30T02:59:45;100613.59;;;4.33;100.00
56400;BME280;42298;53.638;9.876;2024-01-30T03:02:10;100611.91;;;4.32;100.00
56400;BME280;42298;53.638;9.876;2024-01-30T03:04:36;100622.56;;;4.30;100.00
56400;BME280;42298;53.638;9.876;2024-01-30T03:07:01;100622.69;;;4.29;100.00
56400;BME280;42298;53.638;9.876;2024-01-30T03:09:26;100611.44;;;4.15;100.00
56400;BME280;42298;53.638;9.876;2024-01-30T03:11:52;100617.81;;;4.13;100.00
56400;BME280;42298;53.638;9.876;2024-01-30T03:14:17;100628.25;;;4.14;100.00
56400;BME280;42298;53.638;9.876;2024-01-30T03:16:42;100627.53;;;4.12;100.00
56400;BME280;42298;53.638;9.876;2024-01-30T03:19:08;100628.25;;;4.14;100.00
56400;BME280;42298;53.638;9.876;2024-01-30T03:21:34;100624.16;;;4.22;100.00
56400;BME280;42298;53.638;9.876;2024-01-30T03:24:00;100617.44;;;4.18;100.00
56400;BME280;42298;53.638;9.876;2024-01-30T03:26:25;100617.91;;;4.11;100.00
56400;BME280;42298;53.638;9.876;2024-01-30T03:28:52;100610.00;;;4.11;100.00
56400;BME280;42298;53.638;9.876;2024-01-30T03:31:17;100621.53;;;4.10;100.00
56400;BME280;42298;53.638;9.876;2024-01-30T03:33:43;100623.44;;;4.08;100.00
56400;BME280;42298;53.638;9.876;2024-01-30T03:36:09;100628.00;;;4.06;100.00
56400;BME280;42298;53.638;9.876;2024-01-30T03:38:35;100623.34;;;3.99;100.00
56400;BME280;42298;53.638;9.876;2024-01-30T03:41:00;100630.91;;;3.92;100.00
56400;BME280;42298;53.638;9.876;2024-01-30T03:43:26;100635.66;;;3.87;100.00
56400;BME280;42298;53.638;9.876;2024-01-30T03:45:51;100634.00;;;3.86;100.00
56400;BME280;42298;53.638;9.876;2024-01-30T03:48:19;100631.13;;;3.89;100.00
56400;BME280;42298;53.638;9.876;2024-01-30T03:50:45;100637.38;;;3.88;100.00
56400;BME280;42298;53.638;9.876;2024-01-30T03:53:10;100644.53;;;3.86;100.00
56400;BME280;42298;53.638;9.876;2024-01-30T03:55:35;100635.91;;;3.84;100.00
56400;BME280;42298;53.638;9.876;2024-01-30T03:58:01;100642.03;;;3.84;100.00
56400;BME280;42298;53.638;9.876;2024-01-30T04:00:26;100653.53;;;3.83;100.00
56400;BME280;42298;53.638;9.876;2024-01-30T04:02:51;100666.47;;;3.86;100.00
56400;BME280;42298;53.638;9.876;2024-01-30T04:05:17;100660.00;;;3.90;100.00
56400;BME280;42298;53.638;9.876;2024-01-30T04:07:43;100656.88;;;3.85;100.00
56400;BME280;42298;53.638;9.876;2024-01-30T04:10:09;100667.53;;;3.84;100.00
56400;BME280;42298;53.638;9.876;2024-01-30T04:12:35;100686.09;;;3.82;100.00
56400;BME280;42298;53.638;9.876;2024-01-30T04:15:01;100680.00;;;3.82;100.00
56400;BME280;42298;53.638;9.876;2024-01-30T04:17:26;100682.97;;;3.77;100.00
56400;BME280;42298;53.638;9.876;2024-01-30T04:19:54;100695.31;;;3.77;100.00
56400;BME280;42298;53.638;9.876;2024-01-30T04:22:19;100710.50;;;3.73;100.00
56400;BME280;42298;53.638;9.876;2024-01-30T04:24:45;100708.22;;;3.68;100.00
56400;BME280;42298;53.638;9.876;2024-01-30T04:27:11;100709.91;;;3.69;100.00
56400;BME280;42298;53.638;9.876;2024-01-30T04:29:36;100722.97;;;3.71;100.00
56400;BME280;42298;53.638;9.876;2024-01-30T04:32:01;100718.88;;;3.67;100.00
56400;BME280;42298;53.638;9.876;2024-01-30T04:34:27;100731.31;;;3.65;100.00
56400;BME280;42298;53.638;9.876;2024-01-30T04:36:52;100732.63;;;3.59;100.00
56400;BME280;42298;53.638;9.876;2024-01-30T04:39:17;100749.63;;;3.55;100.00
56400;BME280;42298;53.638;9.876;2024-01-30T04:41:42;100755.81;;;3.54;100.00
56400;BME280;42298;53.638;9.876;2024-01-30T04:44:08;100753.81;;;3.58;100.00
56400;BME280;42298;53.638;9.876;2024-01-30T04:46:33;100752.00;;;3.58;100.00
56400;BME280;42298;53.638;9.876;2024-01-30T04:49:01;100765.91;;;3.60;100.00
56400;BME280;42298;53.638;9.876;2024-01-30T04:51:26;100760.06;;;3.57;100.00
56400;BME280;42298;53.638;9.876;2024-01-30T04:53:51;100765.19;;;3.58;100.00
56400;BME280;42298;53.638;9.876;2024-01-30T04:56:17;100770.59;;;3.57;100.00
56400;BME280;42298;53.638;9.876;2024-01-30T04:58:42;100773.22;;;3.57;100.00
56400;BME280;42298;53.638;9.876;2024-01-30T05:01:08;100768.41;;;3.50;100.00
56400;BME280;42298;53.638;9.876;2024-01-30T05:03:34;100774.59;;;3.49;100.00
56400;BME280;42298;53.638;9.876;2024-01-30T05:05:59;100767.56;;;3.50;100.00
56400;BME280;42298;53.638;9.876;2024-01-30T05:08:25;100779.03;;;3.49;100.00
56400;BME280;42298;53.638;9.876;2024-01-30T05:10:50;100778.94;;;3.50;100.00
56400;BME280;42298;53.638;9.876;2024-01-30T05:13:15;100782.16;;;3.54;100.00
56400;BME280;42298;53.638;9.876;2024-01-30T05:15:41;100794.28;;;3.57;100.00
56400;BME280;42298;53.638;9.876;2024-01-30T05:18:06;100794.16;;;3.58;100.00
56400;BME280;42298;53.638;9.876;2024-01-30T05:20:31;100803.63;;;3.61;100.00
56400;BME280;42298;53.638;9.876;2024-01-30T05:22:57;100793.94;;;3.61;100.00
56400;BME280;42298;53.638;9.876;2024-01-30T05:25:22;100808.81;;;3.73;100.00
56400;BME280;42298;53.638;9.876;2024-01-30T05:27:49;100801.75;;;3.74;100.00
56400;BME280;42298;53.638;9.876;2024-01-30T05:30:15;100796.81;;;3.69;100.00
56400;BME280;42298;53.638;9.876;2024-01-30T05:32:40;100788.19;;;3.67;100.00
56400;BME280;42298;53.638;9.876;2024-01-30T05:35:06;100783.06;;;3.66;100.00
56400;BME280;42298;53.638;9.876;2024-01-30T05:37:33;100786.06;;;3.72;100.00
56400;BME280;42298;53.638;9.876;2024-01-30T05:39:59;100776.78;;;3.91;100.00
56400;BME280;42298;53.638;9.876;2024-01-30T05:42:25;100771.50;;;3.91;100.00
56400;BME280;42298;53.638;9.876;2024-01-30T05:44:50;100773.53;;;3.87;100.00
56400;BME280;42298;53.638;9.876;2024-01-30T05:47:19;100773.19;;;3.92;100.00
56400;BME280;42298;53.638;9.876;2024-01-30T05:49:44;100766.97;;;3.93;100.00
56400;BME280;42298;53.638;9.876;2024-01-30T05:52:09;100760.03;;;3.92;100.00
56400;BME280;42298;53.638;9.876;2024-01-30T05:54:34;100753.88;;;3.91;100.00
56400;BME280;42298;53.638;9.876;2024-01-30T05:57:00;100762.66;;;3.92;100.00
56400;BME280;42298;53.638;9.876;2024-01-30T05:59:25;100759.78;;;3.95;100.00
56400;BME280;42298;53.638;9.876;2024-01-30T06:01:51;100746.34;;;3.98;100.00
56400;BME280;42298;53.638;9.876;2024-01-30T06:04:16;100750.69;;;4.10;100.00
56400;BME280;42298;53.638;9.876;2024-01-30T06:06:42;100725.06;;;4.12;100.00
56400;BME280;42298;53.638;9.876;2024-01-30T06:09:08;100722.06;;;4.17;100.00
56400;BME280;42298;53.638;9.876;2024-01-30T06:11:37;100700.97;;;4.17;100.00
56400;BME280;42298;53.638;9.876;2024-01-30T06:14:03;100678.91;;;4.07;100.00
56400;BME280;42298;53.638;9.876;2024-01-30T06:16:28;100684.19;;;4.18;100.00
56400;BME280;42298;53.638;9.876;2024-01-30T06:18:55;100676.84;;;4.44;100.00
56400;BME280;42298;53.638;9.876;2024-01-30T06:21:21;100662.34;;;4.50;100.00
56400;BME280;42298;53.638;9.876;2024-01-30T06:23:46;100647.69;;;4.57;100.00
56400;BME280;42298;53.638;9.876;2024-01-30T06:26:11;100615.91;;;4.59;100.00
56400;BME280;42298;53.638;9.876;2024-01-30T06:28:37;100601.25;;;4.66;100.00
56400;BME280;42298;53.638;9.876;2024-01-30T06:31:02;100582.41;;;4.70;100.00
56400;BME280;42298;53.638;9.876;2024-01-30T06:33:28;100562.22;;;4.81;100.00
56400;BME280;42298;53.638;9.876;2024-01-30T06:35:53;100540.56;;;4.87;100.00
56400;BME280;42298;53.638;9.876;2024-01-30T06:38:18;100532.66;;;4.87;100.00
56400;BME280;42298;53.638;9.876;2024-01-30T06:40:44;100519.94;;;4.92;100.00
56400;BME280;42298;53.638;9.876;2024-01-30T06:43:09;100495.31;;;4.91;100.00
56400;BME280;42298;53.638;9.876;2024-01-30T06:45:34;100498.50;;;4.85;100.00
56400;BME280;42298;53.638;9.876;2024-01-30T06:48:00;100499.47;;;4.84;100.00
56400;BME280;42298;53.638;9.876;2024-01-30T06:50:25;100491.31;;;4.87;100.00
56400;BME280;42298;53.638;9.876;2024-01-30T06:52:51;100462.91;;;4.80;100.00
56400;BME280;42298;53.638;9.876;2024-01-30T06:55:16;100453.72;;;4.74;100.00
56400;BME280;42298;53.638;9.876;2024-01-30T06:57:41;100453.50;;;4.87;100.00
56400;BME280;42298;53.638;9.876;2024-01-30T07:00:07;100425.53;;;4.74;100.00
56400;BME280;42298;53.638;9.876;2024-01-30T07:02:33;100434.69;;;4.80;100.00
56400;BME280;42298;53.638;9.876;2024-01-30T07:04:58;100420.81;;;4.78;100.00
56400;BME280;42298;53.638;9.876;2024-01-30T07:07:24;100420.66;;;4.70;100.00
56400;BME280;42298;53.638;9.876;2024-01-30T07:09:49;100426.75;;;4.70;100.00
56400;BME280;42298;53.638;9.876;2024-01-30T07:12:17;100412.38;;;4.84;100.00
56400;BME280;42298;53.638;9.876;2024-01-30T07:14:43;100406.44;;;4.92;100.00
56400;BME280;42298;53.638;9.876;2024-01-30T07:17:08;100400.41;;;4.80;100.00
56400;BME280;42298;53.638;9.876;2024-01-30T07:19:33;100395.69;;;4.74;100.00
56400;BME280;42298;53.638;9.876;2024-01-30T07:22:00;100394.97;;;4.72;100.00
56400;BME280;42298;53.638;9.876;2024-01-30T07:24:25;100377.13;;;4.64;100.00
56400;BME280;42298;53.638;9.876;2024-01-30T07:26:51;100392.72;;;4.67;100.00
56400;BME280;42298;53.638;9.876;2024-01-30T07:29:16;100378.69;;;4.67;100.00
56400;BME280;42298;53.638;9.876;2024-01-30T07:31:41;100381.28;;;4.57;100.00
56400;BME280;42298;53.638;9.876;2024-01-30T07:34:07;100371.50;;;4.48;100.00
56400;BME280;42298;53.638;9.876;2024-01-30T07:36:32;100371.81;;;4.54;100.00
56400;BME280;42298;53.638;9.876;2024-01-30T07:38:57;100359.19;;;4.58;100.00
56400;BME280;42298;53.638;9.876;2024-01-30T07:41:22;100348.81;;;4.66;100.00
56400;BME280;42298;53.638;9.876;2024-01-30T07:43:50;100333.38;;;4.92;100.00
56400;BME280;42298;53.638;9.876;2024-01-30T07:46:15;100335.31;;;4.90;100.00
56400;BME280;42298;53.638;9.876;2024-01-30T07:48:40;100317.91;;;4.78;100.00
56400;BME280;42298;53.638;9.876;2024-01-30T07:51:06;100316.56;;;4.93;100.00
56400;BME280;42298;53.638;9.876;2024-01-30T07:53:31;100308.13;;;5.00;100.00
56400;BME280;42298;53.638;9.876;2024-01-30T07:56:03;100305.06;;;4.94;100.00
56400;BME280;42298;53.638;9.876;2024-01-30T07:58:28;100304.06;;;4.95;100.00
56400;BME280;42298;53.638;9.876;2024-01-30T08:00:53;100306.00;;;4.93;100.00
56400;BME280;42298;53.638;9.876;2024-01-30T08:03:19;100300.88;;;4.92;100.00
56400;BME280;42298;53.638;9.876;2024-01-30T08:05:44;100274.50;;;5.02;100.00
56400;BME280;42298;53.638;9.876;2024-01-30T08:08:09;100264.56;;;5.25;100.00
56400;BME280;42298;53.638;9.876;2024-01-30T08:10:35;100242.16;;;5.38;100.00
56400;BME280;42298;53.638;9.876;2024-01-30T08:13:02;100235.78;;;5.41;100.00
56400;BME280;42298;53.638;9.876;2024-01-30T08:15:27;100229.22;;;5.55;100.00
56400;BME280;42298;53.638;9.876;2024-01-30T08:17:53;100226.19;;;5.50;100.00
56400;BME280;42298;53.638;9.876;2024-01-30T08:20:23;100217.25;;;5.51;100.00
56400;BME280;42298;53.638;9.876;2024-01-30T08:22:48;100215.59;;;5.50;100.00
56400;BME280;42298;53.638;9.876;2024-01-30T08:25:13;100207.41;;;5.43;100.00
56400;BME280;42298;53.638;9.876;2024-01-30T08:27:39;100214.22;;;5.46;100.00
56400;BME280;42298;53.638;9.876;2024-01-30T08:30:06;100210.88;;;5.53;100.00
56400;BME280;42298;53.638;9.876;2024-01-30T08:32:31;100203.06;;;5.62;100.00
56400;BME280;42298;53.638;9.876;2024-01-30T08:34:57;100201.69;;;5.67;100.00
56400;BME280;42298;53.638;9.876;2024-01-30T08:37:22;100179.50;;;5.88;100.00
56400;BME280;42298;53.638;9.876;2024-01-30T08:39:48;100167.94;;;5.89;100.00
56400;BME280;42298;53.638;9.876;2024-01-30T08:42:13;100152.66;;;5.92;100.00
56400;BME280;42298;53.638;9.876;2024-01-30T08:44:38;100137.38;;;5.96;100.00
56400;BME280;42298;53.638;9.876;2024-01-30T08:47:05;100124.53;;;6.01;100.00
56400;BME280;42298;53.638;9.876;2024-01-30T08:49:30;100111.38;;;6.19;100.00
56400;BME280;42298;53.638;9.876;2024-01-30T08:51:56;100082.38;;;6.27;100.00
56400;BME280;42298;53.638;9.876;2024-01-30T08:54:21;100072.03;;;6.34;100.00
56400;BME280;42298;53.638;9.876;2024-01-30T08:56:47;100060.78;;;6.32;100.00
56400;BME280;42298;53.638;9.876;2024-01-30T08:59:12;100057.31;;;6.31;100.00
56400;BME280;42298;53.638;9.876;2024-01-30T09:01:37;100054.66;;;6.31;100.00
56400;BME280;42298;53.638;9.876;2024-01-30T09:04:03;100057.31;;;6.31;100.00
56400;BME280;42298;53.638;9.876;2024-01-30T09:06:28;100070.75;;;6.38;100.00
56400;BME280;42298;53.638;9.876;2024-01-30T09:08:54;100072.41;;;6.39;100.00
56400;BME280;42298;53.638;9.876;2024-01-30T09:11:19;100071.97;;;6.43;100.00
56400;BME280;42298;53.638;9.876;2024-01-30T09:13:45;100071.38;;;6.50;100.00
56400;BME280;42298;53.638;9.876;2024-01-30T09:16:10;100061.63;;;6.50;100.00
56400;BME280;42298;53.638;9.876;2024-01-30T09:18:36;100071.59;;;6.56;100.00
56400;BME280;42298;53.638;9.876;2024-01-30T09:21:01;100075.47;;;6.62;100.00
56400;BME280;42298;53.638;9.876;2024-01-30T09:23:29;100057.09;;;6.60;100.00
56400;BME280;42298;53.638;9.876;2024-01-30T09:25:55;100071.50;;;6.66;100.00
56400;BME280;42298;53.638;9.876;2024-01-30T09:28:20;100078.84;;;6.72;100.00
56400;BME280;42298;53.638;9.876;2024-01-30T09:30:46;100084.72;;;6.84;100.00
56400;BME280;42298;53.638;9.876;2024-01-30T09:33:11;100079.16;;;6.87;100.00
56400;BME280;42298;53.638;9.876;2024-01-30T09:35:36;100085.63;;;6.93;100.00
56400;BME280;42298;53.638;9.876;2024-01-30T09:38:02;100074.91;;;6.94;100.00
56400;BME280;42298;53.638;9.876;2024-01-30T09:40:28;100075.13;;;7.01;100.00
56400;BME280;42298;53.638;9.876;2024-01-30T09:42:54;100078.13;;;7.06;100.00
56400;BME280;42298;53.638;9.876;2024-01-30T09:45:21;100074.19;;;7.10;100.00
56400;BME280;42298;53.638;9.876;2024-01-30T09:47:48;100072.91;;;7.14;100.00
56400;BME280;42298;53.638;9.876;2024-01-30T09:50:15;100069.66;;;7.20;100.00
56400;BME280;42298;53.638;9.876;2024-01-30T09:52:40;100067.22;;;7.27;100.00
56400;BME280;42298;53.638;9.876;2024-01-30T09:55:07;100061.13;;;7.35;100.00
56400;BME280;42298;53.638;9.876;2024-01-30T09:57:34;100053.09;;;7.53;100.00
56400;BME280;42298;53.638;9.876;2024-01-30T09:59:59;100052.81;;;7.56;100.00
56400;BME280;42298;53.638;9.876;2024-01-30T10:02:24;100058.63;;;7.59;100.00
56400;BME280;42298;53.638;9.876;2024-01-30T10:04:51;100052.47;;;7.59;100.00
56400;BME280;42298;53.638;9.876;2024-01-30T10:07:18;100063.97;;;7.67;100.00
56400;BME280;42298;53.638;9.876;2024-01-30T10:09:44;100068.78;;;7.72;100.00
56400;BME280;42298;53.638;9.876;2024-01-30T10:12:10;100066.50;;;7.77;100.00
56400;BME280;42298;53.638;9.876;2024-01-30T10:14:42;100073.13;;;7.81;100.00
56400;BME280;42298;53.638;9.876;2024-01-30T10:17:08;100079.28;;;7.90;100.00
56400;BME280;42298;53.638;9.876;2024-01-30T10:19:35;100078.81;;;7.95;100.00
56400;BME280;42298;53.638;9.876;2024-01-30T10:22:00;100079.34;;;7.98;100.00
56400;BME280;42298;53.638;9.876;2024-01-30T10:24:26;100084.84;;;8.05;100.00
56400;BME280;42298;53.638;9.876;2024-01-30T10:26:51;100074.56;;;8.02;100.00
56400;BME280;42298;53.638;9.876;2024-01-30T10:29:18;100083.03;;;8.14;100.00
56400;BME280;42298;53.638;9.876;2024-01-30T10:31:43;100069.28;;;8.18;100.00
56400;BME280;42298;53.638;9.876;2024-01-30T10:34:08;100078.09;;;8.27;100.00
56400;BME280;42298;53.638;9.876;2024-01-30T10:36:40;100078.94;;;8.27;100.00
56400;BME280;42298;53.638;9.876;2024-01-30T10:39:08;100075.63;;;8.34;100.00
56400;BME280;42298;53.638;9.876;2024-01-30T10:41:41;100073.53;;;8.45;100.00
56400;BME280;42298;53.638;9.876;2024-01-30T10:44:09;100085.66;;;8.48;100.00
56400;BME280;42298;53.638;9.876;2024-01-30T10:46:35;100088.66;;;8.53;100.00
56400;BME280;42298;53.638;9.876;2024-01-30T10:49:04;100086.81;;;8.54;100.00
56400;BME280;42298;53.638;9.876;2024-01-30T10:51:31;100094.97;;;8.60;100.00
56400;BME280;42298;53.638;9.876;2024-01-30T10:53:58;100105.59;;;8.60;100.00
56400;BME280;42298;53.638;9.876;2024-01-30T10:56:25;100104.13;;;8.66;100.00
56400;BME280;42298;53.638;9.876;2024-01-30T10:58:52;100104.09;;;8.74;100.00
56400;BME280;42298;53.638;9.876;2024-01-30T11:01:22;100101.13;;;8.77;100.00
56400;BME280;42298;53.638;9.876;2024-01-30T11:03:52;100097.50;;;8.95;100.00
56400;BME280;42298;53.638;9.876;2024-01-30T11:06:22;100098.16;;;9.05;100.00
56400;BME280;42298;53.638;9.876;2024-01-30T11:09:03;100106.78;;;9.07;100.00
56400;BME280;42298;53.638;9.876;2024-01-30T11:11:51;100105.97;;;9.06;100.00
56400;BME280;42298;53.638;9.876;2024-01-30T11:14:23;100092.53;;;9.08;100.00
56400;BME280;42298;53.638;9.876;2024-01-30T11:16:50;100115.59;;;9.16;100.00
56400;BME280;42298;53.638;9.876;2024-01-30T11:19:22;100110.28;;;9.16;100.00
56400;BME280;42298;53.638;9.876;2024-01-30T11:21:50;100119.72;;;9.18;100.00
56400;BME280;42298;53.638;9.876;2024-01-30T11:24:18;100116.94;;;9.28;100.00
56400;BME280;42298;53.638;9.876;2024-01-30T11:26:43;100129.38;;;9.36;100.00
56400;BME280;42298;53.638;9.876;2024-01-30T11:29:09;100126.69;;;9.36;100.00
56400;BME280;42298;53.638;9.876;2024-01-30T11:31:34;100131.03;;;9.37;100.00
56400;BME280;42298;53.638;9.876;2024-01-30T11:34:00;100142.34;;;9.39;100.00
56400;BME280;42298;53.638;9.876;2024-01-30T11:36:27;100136.16;;;9.38;100.00
56400;BME280;42298;53.638;9.876;2024-01-30T11:38:54;100143.16;;;9.39;100.00
56400;BME280;42298;53.638;9.876;2024-01-30T11:41:20;100143.97;;;9.40;100.00
56400;BME280;42298;53.638;9.876;2024-01-30T11:43:54;100147.31;;;9.42;100.00
56400;BME280;42298;53.638;9.876;2024-01-30T11:46:20;100152.78;;;9.48;100.00
56400;BME280;42298;53.638;9.876;2024-01-30T11:48:45;100158.44;;;9.45;100.00
56400;BME280;42298;53.638;9.876;2024-01-30T11:51:12;100153.59;;;9.49;100.00
56400;BME280;42298;53.638;9.876;2024-01-30T11:53:38;100167.91;;;9.48;100.00
56400;BME280;42298;53.638;9.876;2024-01-30T11:56:06;100165.06;;;9.49;100.00
56400;BME280;42298;53.638;9.876;2024-01-30T11:58:31;100170.06;;;9.52;100.00
56400;BME280;42298;53.638;9.876;2024-01-30T12:00:56;100182.34;;;9.53;100.00
56400;BME280;42298;53.638;9.876;2024-01-30T12:03:22;100179.22;;;9.50;100.00
56400;BME280;42298;53.638;9.876;2024-01-30T12:05:58;100178.03;;;9.52;100.00
56400;BME280;42298;53.638;9.876;2024-01-30T12:08:23;100176.53;;;9.50;100.00
56400;BME280;42298;53.638;9.876;2024-01-30T12:10:56;100183.50;;;9.59;100.00
56400;BME280;42298;53.638;9.876;2024-01-30T12:13:22;100191.97;;;9.63;100.00
56400;BME280;42298;53.638;9.876;2024-01-30T12:15:48;100197.63;;;9.60;100.00
56400;BME280;42298;53.638;9.876;2024-01-30T12:18:13;100177.03;;;9.53;100.00
56400;BME280;42298;53.638;9.876;2024-01-30T12:20:38;100194.47;;;9.56;100.00
56400;BME280;42298;53.638;9.876;2024-01-30T12:23:04;100190.97;;;9.56;100.00
56400;BME280;42298;53.638;9.876;2024-01-30T12:25:29;100184.69;;;9.48;100.00
56400;BME280;42298;53.638;9.876;2024-01-30T12:27:55;100199.13;;;9.54;100.00
56400;BME280;42298;53.638;9.876;2024-01-30T12:30:21;100188.31;;;9.47;100.00
56400;BME280;42298;53.638;9.876;2024-01-30T12:32:49;100205.94;;;9.57;100.00
56400;BME280;42298;53.638;9.876;2024-01-30T12:35:18;100201.63;;;9.56;100.00
56400;BME280;42298;53.638;9.876;2024-01-30T12:37:45;100213.06;;;9.56;100.00
56400;BME280;42298;53.638;9.876;2024-01-30T12:40:11;100215.56;;;9.58;100.00
56400;BME280;42298;53.638;9.876;2024-01-30T12:42:40;100213.59;;;9.60;100.00
56400;BME280;42298;53.638;9.876;2024-01-30T12:45:05;100220.06;;;9.65;100.00